< < Back
Terminal Aerodrome Forecast


Current Version              Previous Versions:   1  2  3  4  5  6  7  8  9  

Terminal Aerodrome Forecast

701
FTUS42 KILM 011100
TAFILM
TAF
KILM 011120Z 0112/0212 00000KT 2SM BR BKN002
     FM011300 01007KT P6SM SCT250
     FM012000 12006KT P6SM SCT250=



Latest METAR

129
SAUS70 KWBC 012000 RRL
MTRILM
METAR KILM 011953Z 01005KT 10SM SCT042 28/18 A2996 RMK AO2 SLP145
T02780178


USA.gov is the U.S. government's official web portal to all federal, state and local government web resources and services.